createdAt,value
2023-02-28T00:00:56.428Z,5.13
2023-02-28T00:03:24.264Z,5.11
2023-02-28T00:05:52.125Z,5.10
2023-02-28T00:08:19.881Z,5.10
2023-02-28T00:10:47.594Z,5.11
2023-02-28T00:15:46.274Z,5.14
2023-02-28T00:18:14.284Z,5.17
2023-02-28T00:20:42.140Z,5.19
2023-02-28T00:23:10.153Z,5.22
2023-02-28T00:25:37.810Z,5.26
2023-02-28T00:28:05.945Z,5.32
2023-02-28T00:30:33.673Z,5.32
2023-02-28T00:33:02.871Z,5.37
2023-02-28T00:35:30.748Z,5.42
2023-02-28T00:37:58.614Z,5.42
2023-02-28T00:40:26.278Z,5.41
2023-02-28T00:42:54.126Z,5.41
2023-02-28T00:45:21.833Z,5.41
2023-02-28T00:47:50.826Z,5.39
2023-02-28T00:50:20.996Z,5.36
2023-02-28T00:52:48.821Z,5.35
2023-02-28T00:55:16.543Z,5.33
2023-02-28T00:57:44.327Z,5.28
2023-02-28T01:00:13.163Z,5.25
2023-02-28T01:02:40.973Z,5.22
2023-02-28T01:05:09.697Z,5.17
2023-02-28T01:07:39.274Z,5.10
2023-02-28T01:10:07.710Z,5.09
2023-02-28T01:12:35.501Z,5.05
2023-02-28T01:15:03.290Z,5.02
2023-02-28T01:17:30.933Z,4.98
2023-02-28T01:19:58.707Z,4.96
2023-02-28T01:22:26.567Z,4.90
2023-02-28T01:24:55.932Z,4.88
2023-02-28T01:27:23.623Z,4.85
2023-02-28T01:29:52.716Z,4.81
2023-02-28T01:32:20.455Z,4.79
2023-02-28T01:34:48.387Z,4.76
2023-02-28T01:37:16.057Z,4.71
2023-02-28T01:39:43.718Z,4.63
2023-02-28T01:42:12.911Z,4.61
2023-02-28T01:44:59.273Z,4.63
2023-02-28T01:47:27.996Z,4.61
2023-02-28T01:49:55.637Z,4.59
2023-02-28T01:52:23.455Z,4.58
2023-02-28T01:54:52.946Z,4.50
2023-02-28T01:57:23.807Z,4.50
2023-02-28T01:59:53.107Z,4.42
2023-02-28T02:02:22.467Z,4.50
2023-02-28T02:04:53.636Z,4.45
2023-02-28T02:07:21.439Z,4.43
2023-02-28T02:09:49.052Z,4.42
2023-02-28T02:12:26.155Z,4.29
2023-02-28T02:15:00.655Z,4.39
2023-02-28T02:17:30.491Z,4.07
2023-02-28T02:20:29.516Z,4.31
2023-02-28T02:23:23.178Z,4.19
2023-02-28T02:25:52.166Z,3.83
2023-02-28T02:28:42.261Z,4.00
2023-02-28T02:31:55.929Z,4.27
2023-02-28T02:34:47.064Z,4.20
2023-02-28T02:37:18.417Z,4.20
2023-02-28T02:39:51.033Z,4.16
2023-02-28T02:42:20.830Z,4.17
2023-02-28T02:44:50.245Z,4.14
2023-02-28T02:47:19.561Z,3.85
2023-02-28T02:49:51.072Z,4.13
2023-02-28T02:52:19.802Z,3.74
2023-02-28T02:54:47.901Z,3.78
2023-02-28T02:57:21.324Z,4.10
2023-02-28T02:59:50.329Z,4.00
2023-02-28T03:02:18.151Z,4.08
2023-02-28T03:04:47.397Z,4.08
2023-02-28T03:07:16.570Z,4.03
2023-02-28T03:09:52.550Z,3.99
2023-02-28T03:12:20.336Z,3.99
2023-02-28T03:14:58.672Z,3.93
2023-02-28T03:17:33.222Z,3.95
2023-02-28T03:20:08.486Z,3.95
2023-02-28T03:22:50.342Z,3.94
2023-02-28T03:25:20.968Z,3.66
2023-02-28T03:27:52.065Z,3.88
2023-02-28T03:30:25.971Z,3.93
2023-02-28T03:32:56.729Z,3.47
2023-02-28T03:35:25.392Z,3.90
2023-02-28T03:37:56.226Z,3.61
2023-02-28T03:40:24.821Z,3.88
2023-02-28T03:42:53.812Z,3.89
2023-02-28T03:45:23.480Z,3.70
2023-02-28T03:47:53.205Z,3.83
2023-02-28T03:50:21.774Z,3.60
2023-02-28T03:52:51.007Z,3.78
2023-02-28T03:55:20.126Z,3.77
2023-02-28T03:57:53.759Z,3.69
2023-02-28T04:00:22.655Z,3.75
2023-02-28T04:02:53.541Z,3.75
2023-02-28T04:05:21.328Z,3.78
2023-02-28T04:07:49.256Z,3.38
2023-02-28T04:10:17.205Z,3.74
2023-02-28T04:12:46.423Z,3.73
2023-02-28T04:15:14.216Z,3.73
2023-02-28T04:17:41.971Z,3.72
2023-02-28T04:20:11.517Z,3.70
2023-02-28T04:22:41.290Z,3.69
2023-02-28T04:25:09.759Z,3.68
2023-02-28T04:27:38.555Z,3.67
2023-02-28T04:30:09.168Z,3.67
2023-02-28T04:32:37.011Z,3.65
2023-02-28T04:35:05.181Z,3.57
2023-02-28T04:37:35.833Z,3.64
2023-02-28T04:40:03.871Z,3.62
2023-02-28T04:42:36.409Z,3.61
2023-02-28T04:45:04.191Z,3.63
2023-02-28T04:47:33.404Z,3.58
2023-02-28T04:50:01.076Z,3.58
2023-02-28T04:52:29.568Z,3.58
2023-02-28T04:54:57.229Z,3.57
2023-02-28T04:57:25.060Z,3.55
2023-02-28T04:59:52.751Z,3.54
2023-02-28T05:02:22.204Z,3.53
2023-02-28T05:04:51.314Z,3.50
2023-02-28T05:07:19.000Z,3.49
2023-02-28T05:09:46.831Z,3.46
2023-02-28T05:12:14.528Z,3.41
2023-02-28T05:14:42.173Z,3.41
2023-02-28T05:17:10.804Z,3.41
2023-02-28T05:19:38.542Z,3.36
2023-02-28T05:22:17.665Z,3.36
2023-02-28T05:24:45.398Z,3.35
2023-02-28T05:27:14.202Z,3.32
2023-02-28T05:29:44.295Z,3.31
2023-02-28T05:32:12.682Z,3.29
2023-02-28T05:34:40.667Z,3.28
2023-02-28T05:37:13.130Z,3.24
2023-02-28T05:39:41.017Z,3.24
2023-02-28T05:42:08.813Z,3.22
2023-02-28T05:44:36.508Z,3.21
2023-02-28T05:47:04.349Z,2.77
2023-02-28T05:49:32.278Z,3.18
2023-02-28T05:52:00.140Z,3.18
2023-02-28T05:54:29.431Z,3.15
2023-02-28T05:56:57.122Z,3.16
2023-02-28T05:59:24.942Z,3.15
2023-02-28T06:01:54.157Z,2.97
2023-02-28T06:04:31.621Z,3.04
2023-02-28T06:07:00.040Z,3.13
2023-02-28T06:09:29.973Z,3.11
2023-02-28T06:11:59.780Z,2.98
2023-02-28T06:14:27.422Z,2.81
2023-02-28T06:19:29.676Z,2.94
2023-02-28T06:21:57.899Z,3.12
2023-02-28T06:24:26.181Z,3.15
2023-02-28T06:26:55.441Z,3.15
2023-02-28T06:29:23.265Z,3.17
2023-02-28T06:31:51.034Z,3.18
2023-02-28T06:34:22.841Z,3.13
2023-02-28T06:36:52.066Z,3.23
2023-02-28T06:39:19.826Z,3.01
2023-02-28T06:41:55.387Z,2.94
2023-02-28T06:44:25.373Z,3.28
2023-02-28T06:46:53.195Z,3.30
2023-02-28T06:49:21.056Z,3.17
2023-02-28T06:51:48.749Z,3.38
2023-02-28T06:54:16.641Z,3.38
2023-02-28T06:56:44.500Z,3.47
2023-02-28T06:59:12.210Z,3.55
2023-02-28T07:01:41.596Z,3.79
2023-02-28T07:04:09.381Z,4.23
2023-02-28T07:06:37.161Z,4.83
2023-02-28T07:09:06.341Z,5.48
2023-02-28T07:11:34.237Z,6.11
2023-02-28T07:14:01.913Z,6.52
2023-02-28T07:16:29.806Z,6.63
2023-02-28T07:18:58.878Z,6.47
2023-02-28T07:21:26.882Z,6.87
2023-02-28T07:23:54.568Z,7.27
2023-02-28T07:26:22.386Z,7.94
2023-02-28T07:28:50.455Z,8.56
2023-02-28T07:31:19.416Z,9.15
2023-02-28T07:33:47.160Z,9.71
2023-02-28T07:36:18.473Z,10.27
2023-02-28T07:38:48.556Z,10.55
2023-02-28T07:41:16.726Z,10.92
2023-02-28T07:43:45.566Z,11.71
2023-02-28T07:46:15.960Z,11.94
2023-02-28T07:49:28.231Z,12.14
2023-02-28T07:52:01.316Z,12.17
2023-02-28T07:54:31.479Z,12.98
2023-02-28T07:57:00.391Z,12.11
2023-02-28T08:03:15.626Z,14.03
2023-02-28T08:05:44.130Z,14.57
2023-02-28T08:18:44.835Z,15.10
2023-02-28T08:21:17.891Z,16.64
2023-02-28T08:23:48.417Z,16.88
2023-02-28T08:26:16.316Z,17.23
2023-02-28T08:28:45.441Z,17.23
2023-02-28T08:31:14.722Z,16.85
2023-02-28T08:36:52.300Z,18.77
2023-02-28T08:43:12.900Z,17.06
2023-02-28T08:46:58.232Z,16.45
2023-02-28T08:49:44.407Z,18.16
2023-02-28T08:53:37.317Z,19.46
2023-02-28T08:59:36.687Z,18.74
2023-02-28T09:05:30.412Z,19.64
2023-02-28T09:08:28.950Z,19.97
2023-02-28T09:21:02.936Z,20.75
2023-02-28T09:31:06.027Z,21.82
2023-02-28T09:33:35.307Z,20.61
2023-02-28T09:36:05.941Z,19.66
2023-02-28T09:38:36.759Z,19.41
2023-02-28T09:41:05.962Z,19.15
2023-02-28T09:43:36.111Z,17.93
2023-02-28T09:46:09.052Z,17.18
2023-02-28T09:48:41.017Z,16.79
2023-02-28T09:51:43.668Z,16.19
2023-02-28T09:54:14.290Z,14.22
2023-02-28T09:57:09.238Z,14.26
2023-02-28T09:59:44.348Z,11.92
2023-02-28T10:02:21.779Z,13.29
2023-02-28T10:04:53.550Z,12.27
2023-02-28T10:07:40.226Z,11.85
2023-02-28T10:10:13.431Z,12.51
2023-02-28T10:12:43.217Z,12.07
2023-02-28T10:15:11.651Z,12.09
2023-02-28T10:17:54.706Z,12.35
2023-02-28T10:20:24.804Z,12.71
2023-02-28T10:22:56.439Z,12.72
2023-02-28T10:25:26.006Z,12.89
2023-02-28T10:28:09.312Z,13.02
2023-02-28T10:30:41.580Z,15.60
2023-02-28T10:33:18.956Z,17.72
2023-02-28T10:35:50.439Z,18.38
2023-02-28T10:39:01.114Z,17.63
2023-02-28T10:41:55.335Z,21.54
2023-02-28T10:44:29.080Z,20.65
2023-02-28T10:47:00.311Z,21.97
2023-02-28T10:49:33.947Z,23.05
2023-02-28T10:52:02.431Z,23.07
2023-02-28T10:54:36.207Z,24.87
2023-02-28T10:58:14.626Z,25.27
2023-02-28T11:00:43.272Z,22.23
2023-02-28T11:03:24.973Z,25.38
2023-02-28T11:06:04.019Z,25.57
2023-02-28T11:12:52.225Z,25.49
2023-02-28T11:15:35.950Z,22.52
2023-02-28T11:18:14.319Z,24.11
2023-02-28T11:20:48.249Z,25.38
2023-02-28T11:23:24.279Z,22.90
2023-02-28T11:26:12.501Z,24.69
2023-02-28T11:28:44.249Z,23.91
2023-02-28T11:31:26.391Z,26.50
2023-02-28T11:34:10.566Z,25.11
2023-02-28T11:36:56.600Z,27.77
2023-02-28T11:39:25.459Z,27.40
2023-02-28T11:42:12.829Z,27.38
2023-02-28T11:44:55.835Z,27.13
2023-02-28T11:47:29.163Z,28.50
2023-02-28T11:50:04.197Z,29.43
2023-02-28T11:52:47.717Z,30.57
2023-02-28T11:55:19.002Z,30.90
2023-02-28T11:58:07.769Z,31.38
2023-02-28T12:00:46.316Z,31.38
2023-02-28T12:03:20.432Z,32.16
2023-02-28T12:05:49.257Z,32.10
2023-02-28T12:08:33.376Z,33.18
2023-02-28T12:11:18.721Z,32.91
2023-02-28T12:13:50.565Z,32.37
2023-02-28T12:16:26.989Z,30.72
2023-02-28T12:19:13.610Z,29.65
2023-02-28T12:21:52.162Z,31.11
2023-02-28T12:24:31.334Z,30.84
2023-02-28T12:27:00.030Z,30.18
2023-02-28T12:29:29.761Z,30.31
2023-02-28T12:32:04.049Z,27.59
2023-02-28T12:34:34.272Z,26.10
2023-02-28T12:37:06.853Z,25.04
2023-02-28T12:39:48.577Z,24.04
2023-02-28T12:42:21.052Z,22.56
2023-02-28T12:44:50.922Z,21.07
2023-02-28T12:47:25.813Z,20.19
2023-02-28T12:49:56.390Z,19.09
2023-02-28T12:52:25.969Z,18.00
2023-02-28T12:55:06.605Z,17.16
2023-02-28T12:57:38.380Z,16.22
2023-02-28T13:00:08.099Z,15.82
2023-02-28T13:02:47.950Z,14.81
2023-02-28T13:05:33.774Z,13.80
2023-02-28T13:08:21.090Z,14.23
2023-02-28T13:10:50.915Z,13.39
2023-02-28T13:13:20.099Z,13.14
2023-02-28T13:16:15.350Z,13.52
2023-02-28T13:18:45.868Z,13.40
2023-02-28T13:21:24.622Z,13.35
2023-02-28T13:24:03.126Z,13.26
2023-02-28T13:27:05.618Z,13.16
2023-02-28T13:32:44.052Z,13.12
2023-02-28T13:35:37.874Z,12.07
2023-02-28T13:41:52.176Z,9.39
2023-02-28T13:44:43.002Z,10.35
2023-02-28T13:47:25.763Z,11.91
2023-02-28T13:49:56.676Z,12.65
2023-02-28T13:52:26.887Z,11.25
2023-02-28T13:55:17.059Z,11.66
2023-02-28T13:57:51.701Z,12.15
2023-02-28T14:00:27.120Z,12.01
2023-02-28T14:06:52.437Z,11.27
2023-02-28T14:09:58.039Z,11.84
2023-02-28T14:12:57.556Z,12.39
2023-02-28T14:16:15.666Z,10.15
2023-02-28T14:22:05.662Z,11.28
2023-02-28T14:24:59.840Z,11.39
2023-02-28T14:27:54.267Z,11.60
2023-02-28T14:30:56.532Z,11.25
2023-02-28T14:33:50.803Z,11.36
2023-02-28T14:36:21.424Z,11.53
2023-02-28T14:38:56.606Z,11.14
2023-02-28T14:41:31.057Z,11.81
2023-02-28T14:44:00.047Z,11.68
2023-02-28T14:46:30.172Z,9.63
2023-02-28T14:48:58.006Z,9.18
2023-02-28T14:51:25.781Z,10.61
2023-02-28T14:53:58.243Z,11.06
2023-02-28T14:56:30.818Z,11.24
2023-02-28T14:58:59.983Z,11.10
2023-02-28T15:01:28.085Z,11.47
2023-02-28T15:04:00.341Z,11.28
2023-02-28T15:06:30.312Z,11.33
2023-02-28T15:09:12.373Z,10.66
2023-02-28T15:11:42.177Z,10.94
2023-02-28T15:14:17.055Z,11.21
2023-02-28T15:16:45.210Z,11.25
2023-02-28T15:19:15.908Z,11.09
2023-02-28T15:21:45.072Z,11.08
2023-02-28T15:24:15.068Z,10.68
2023-02-28T15:26:45.678Z,10.97
2023-02-28T15:29:15.607Z,9.55
2023-02-28T15:31:56.851Z,10.92
2023-02-28T15:34:36.934Z,11.19
2023-02-28T15:37:09.207Z,10.66
2023-02-28T15:39:43.911Z,10.55
2023-02-28T15:42:24.944Z,10.60
2023-02-28T15:44:52.809Z,9.28
2023-02-28T15:47:22.462Z,10.79
2023-02-28T15:49:51.752Z,10.94
2023-02-28T15:52:21.115Z,10.88
2023-02-28T15:54:49.548Z,10.28
2023-02-28T15:57:21.111Z,10.54
2023-02-28T15:59:52.734Z,10.70
2023-02-28T16:02:22.365Z,10.29
2023-02-28T16:05:00.656Z,10.23
2023-02-28T16:07:28.753Z,9.74
2023-02-28T16:09:56.731Z,10.35
2023-02-28T16:12:28.749Z,10.34
2023-02-28T16:14:57.413Z,10.36
2023-02-28T16:17:26.627Z,10.34
2023-02-28T16:19:54.555Z,6.95
2023-02-28T16:22:26.053Z,9.67
2023-02-28T16:24:56.310Z,10.02
2023-02-28T16:27:28.776Z,9.73
2023-02-28T16:29:57.781Z,9.29
2023-02-28T16:32:25.704Z,9.96
2023-02-28T16:34:53.582Z,9.66
2023-02-28T16:37:21.598Z,9.77
2023-02-28T16:39:51.028Z,9.07
2023-02-28T16:42:22.625Z,8.98
2023-02-28T16:44:54.715Z,9.52
2023-02-28T16:47:22.806Z,8.66
2023-02-28T16:49:50.729Z,8.98
2023-02-28T16:52:19.460Z,9.28
2023-02-28T16:57:19.400Z,8.15
2023-02-28T16:59:47.206Z,8.64
2023-02-28T17:02:16.930Z,8.54
2023-02-28T17:04:45.911Z,9.20
2023-02-28T17:07:14.839Z,8.34
2023-02-28T17:09:45.546Z,6.19
2023-02-28T17:12:16.484Z,9.07
2023-02-28T17:14:44.347Z,5.93
2023-02-28T17:17:14.113Z,8.19
2023-02-28T17:19:44.793Z,7.10
2023-02-28T17:22:15.685Z,7.89
2023-02-28T17:24:43.655Z,8.82
2023-02-28T17:27:13.346Z,8.22
2023-02-28T17:29:41.219Z,7.24
2023-02-28T17:32:17.874Z,8.71
2023-02-28T17:34:47.975Z,6.86
2023-02-28T17:37:15.952Z,6.81
2023-02-28T17:39:43.921Z,7.61
2023-02-28T17:42:11.883Z,5.21
2023-02-28T17:44:39.684Z,7.43
2023-02-28T17:47:07.603Z,8.46
2023-02-28T17:49:35.366Z,7.59
2023-02-28T17:52:04.802Z,7.73
2023-02-28T17:54:33.307Z,6.82
2023-02-28T17:57:10.606Z,5.13
2023-02-28T17:59:38.850Z,6.01
2023-02-28T18:02:06.935Z,5.97
2023-02-28T18:04:34.697Z,7.28
2023-02-28T18:07:04.067Z,8.27
2023-02-28T18:09:31.812Z,7.60
2023-02-28T18:12:00.015Z,8.18
2023-02-28T18:14:52.288Z,6.95
2023-02-28T18:20:41.464Z,7.60
2023-02-28T18:23:10.862Z,7.62
2023-02-28T18:25:40.175Z,7.45
2023-02-28T18:28:08.390Z,6.64
2023-02-28T18:30:38.070Z,7.58
2023-02-28T18:33:06.190Z,7.58
2023-02-28T18:35:36.949Z,8.04
2023-02-28T18:38:10.598Z,6.11
2023-02-28T18:40:38.540Z,6.04
2023-02-28T18:43:06.658Z,5.57
2023-02-28T18:45:37.055Z,7.26
2023-02-28T18:48:06.792Z,5.23
2023-02-28T18:50:37.590Z,7.22
2023-02-28T18:53:08.513Z,6.41
2023-02-28T18:55:38.125Z,7.35
2023-02-28T18:58:06.321Z,7.16
2023-02-28T19:01:01.138Z,7.86
2023-02-28T19:07:50.816Z,7.71
2023-02-28T19:13:33.795Z,6.25
2023-02-28T19:49:33.190Z,5.54
2023-02-28T19:52:01.092Z,5.38
2023-02-28T19:54:29.547Z,5.19
2023-02-28T19:56:58.481Z,6.57
2023-02-28T19:59:38.320Z,6.08
2023-02-28T20:02:06.949Z,4.51
2023-02-28T20:04:36.314Z,6.18
2023-02-28T20:07:04.228Z,4.50
2023-02-28T20:09:45.878Z,5.56
2023-02-28T20:12:23.499Z,5.75
2023-02-28T20:14:52.517Z,3.51
2023-02-28T20:17:38.775Z,4.69
2023-02-28T20:20:17.505Z,6.00
2023-02-28T20:22:45.593Z,6.04
2023-02-28T20:25:13.403Z,5.09
2023-02-28T20:27:42.347Z,4.23
2023-02-28T20:30:11.094Z,6.60
2023-02-28T20:32:39.894Z,5.90
2023-02-28T20:35:11.848Z,4.72
2023-02-28T20:37:43.336Z,3.63
2023-02-28T20:40:12.329Z,6.50
